createdAt,value
2019-02-20T00:01:26.681Z,7.48
2019-02-20T00:03:58.395Z,7.36
2019-02-20T00:06:30.053Z,7.38
2019-02-20T00:09:01.339Z,7.48
2019-02-20T00:11:34.324Z,7.35
2019-02-20T00:14:05.658Z,7.40
2019-02-20T00:16:37.055Z,7.52
2019-02-20T00:19:08.425Z,7.49
2019-02-20T00:21:39.876Z,7.51
2019-02-20T00:24:11.227Z,7.53
2019-02-20T00:26:43.531Z,7.58
2019-02-20T00:29:14.846Z,7.47
2019-02-20T00:31:46.835Z,7.40
2019-02-20T00:34:21.249Z,7.39
2019-02-20T00:36:52.576Z,7.41
2019-02-20T00:39:23.927Z,7.53
2019-02-20T00:41:55.683Z,7.50
2019-02-20T00:44:33.050Z,7.46
2019-02-20T00:47:25.905Z,7.48
2019-02-20T00:49:58.900Z,7.59
2019-02-20T00:52:49.372Z,7.46
2019-02-20T00:55:14.506Z,7.57
2019-02-20T00:57:46.307Z,7.50
2019-02-20T01:00:18.077Z,7.64
2019-02-20T01:02:49.288Z,7.55
2019-02-20T01:05:20.635Z,7.60
2019-02-20T01:07:51.896Z,7.33
2019-02-20T01:10:24.147Z,7.47
2019-02-20T01:12:55.416Z,7.35
2019-02-20T01:15:27.842Z,7.30
2019-02-20T01:17:59.327Z,7.31
2019-02-20T01:20:30.778Z,7.26
2019-02-20T01:23:02.605Z,7.30
2019-02-20T01:25:33.836Z,7.32
2019-02-20T01:28:05.610Z,7.40
2019-02-20T01:30:36.954Z,7.51
2019-02-20T01:33:08.156Z,7.59
2019-02-20T01:35:39.859Z,7.50
2019-02-20T01:38:12.063Z,7.48
2019-02-20T01:40:43.765Z,7.60
2019-02-20T01:43:15.087Z,7.61
2019-02-20T01:45:46.675Z,7.58
2019-02-20T01:48:18.649Z,7.57
2019-02-20T01:50:50.710Z,7.58
2019-02-20T01:53:21.972Z,7.74
2019-02-20T01:55:53.605Z,7.53
2019-02-20T01:58:25.383Z,7.61
2019-02-20T02:00:56.740Z,7.70
2019-02-20T02:03:28.109Z,7.63
2019-02-20T02:05:59.855Z,7.52
2019-02-20T02:08:31.130Z,7.60
2019-02-20T02:11:02.848Z,7.58
2019-02-20T02:13:35.220Z,7.65
2019-02-20T02:16:06.427Z,7.78
2019-02-20T02:18:37.746Z,7.64
2019-02-20T02:21:09.058Z,7.72
2019-02-20T02:23:40.704Z,7.64
2019-02-20T02:26:11.897Z,7.67
2019-02-20T02:28:43.561Z,7.69
2019-02-20T02:31:14.881Z,7.57
2019-02-20T02:33:46.905Z,7.56
2019-02-20T02:36:18.960Z,7.69
2019-02-20T02:38:50.197Z,7.61
2019-02-20T02:41:21.433Z,7.61
2019-02-20T02:43:53.164Z,7.60
2019-02-20T02:46:24.464Z,7.57
2019-02-20T02:48:55.754Z,7.51
2019-02-20T02:51:27.187Z,7.57
2019-02-20T02:53:58.824Z,7.62
2019-02-20T02:56:30.218Z,7.65
2019-02-20T02:59:01.810Z,7.58
2019-02-20T03:01:33.136Z,7.69
2019-02-20T03:04:04.449Z,7.60
2019-02-20T03:06:37.086Z,7.64
2019-02-20T03:09:08.271Z,7.60
2019-02-20T03:11:40.234Z,7.60
2019-02-20T03:14:11.539Z,7.63
2019-02-20T03:16:44.165Z,7.78
2019-02-20T03:19:15.575Z,7.78
2019-02-20T03:21:47.272Z,7.73
2019-02-20T03:24:18.616Z,7.61
2019-02-20T03:26:50.732Z,7.65
2019-02-20T03:29:22.843Z,7.52
2019-02-20T03:31:54.197Z,7.53
2019-02-20T03:34:25.476Z,7.55
2019-02-20T03:36:56.920Z,7.57
2019-02-20T03:39:28.200Z,7.45
2019-02-20T03:42:00.551Z,7.51
2019-02-20T03:44:32.226Z,7.51
2019-02-20T03:47:04.021Z,7.59
2019-02-20T03:49:35.296Z,7.59
2019-02-20T03:52:06.564Z,7.58
2019-02-20T03:54:38.183Z,7.54
2019-02-20T03:57:09.447Z,7.51
2019-02-20T03:59:40.835Z,7.57
2019-02-20T04:02:12.532Z,7.63
2019-02-20T04:04:43.777Z,7.64
2019-02-20T04:07:15.415Z,7.49
2019-02-20T04:09:46.986Z,7.45
2019-02-20T04:12:18.313Z,7.53
2019-02-20T04:14:49.558Z,7.48
2019-02-20T04:17:20.768Z,7.71
2019-02-20T04:19:52.085Z,7.60
2019-02-20T04:22:23.255Z,7.56
2019-02-20T04:24:54.962Z,7.38
2019-02-20T04:27:26.566Z,7.56
2019-02-20T04:29:58.188Z,7.48
2019-02-20T04:32:29.565Z,7.44
2019-02-20T04:35:00.995Z,7.46
2019-02-20T04:37:32.335Z,7.46
2019-02-20T04:40:04.220Z,7.58
2019-02-20T04:42:35.470Z,7.45
2019-02-20T04:45:06.962Z,7.48
2019-02-20T04:47:38.690Z,7.60
2019-02-20T04:50:10.338Z,7.57
2019-02-20T04:52:41.725Z,7.49
2019-02-20T04:55:13.002Z,7.49
2019-02-20T04:57:44.315Z,7.50
2019-02-20T05:00:16.083Z,7.61
2019-02-20T05:02:48.962Z,7.55
2019-02-20T05:05:20.276Z,7.68
2019-02-20T05:07:51.483Z,7.51
2019-02-20T05:10:22.765Z,7.54
2019-02-20T05:12:54.049Z,7.51
2019-02-20T05:15:25.327Z,7.42
2019-02-20T05:17:56.644Z,7.52
2019-02-20T05:20:27.945Z,7.53
2019-02-20T05:22:59.513Z,7.62
2019-02-20T05:25:31.169Z,7.67
2019-02-20T05:28:09.985Z,7.58
2019-02-20T05:30:41.576Z,7.56
2019-02-20T05:33:14.564Z,7.56
2019-02-20T05:35:45.821Z,7.63
2019-02-20T05:38:19.371Z,7.58
2019-02-20T05:40:51.009Z,7.48
2019-02-20T05:43:22.710Z,7.57
2019-02-20T05:45:54.025Z,7.62
2019-02-20T05:48:25.367Z,7.57
2019-02-20T05:50:56.694Z,7.44
2019-02-20T05:53:28.404Z,7.48
2019-02-20T05:55:59.665Z,7.36
2019-02-20T05:58:30.980Z,7.39
2019-02-20T06:01:02.362Z,7.47
2019-02-20T06:03:33.695Z,7.61
2019-02-20T06:06:05.796Z,7.56
2019-02-20T06:08:37.130Z,7.63
2019-02-20T06:11:14.818Z,7.65
2019-02-20T06:13:41.556Z,7.60
2019-02-20T06:16:12.954Z,7.58
2019-02-20T06:18:44.782Z,7.67
2019-02-20T06:21:16.486Z,7.70
2019-02-20T06:23:48.224Z,7.58
2019-02-20T06:26:19.588Z,7.64
2019-02-20T06:28:50.819Z,7.56
2019-02-20T06:31:22.543Z,7.49
2019-02-20T06:33:54.198Z,7.50
2019-02-20T06:36:26.064Z,7.56
2019-02-20T06:38:57.957Z,7.61
2019-02-20T06:41:38.356Z,7.65
2019-02-20T06:44:02.459Z,7.71
2019-02-20T06:46:33.872Z,7.67
2019-02-20T06:49:05.145Z,7.52
2019-02-20T06:51:37.617Z,7.59
2019-02-20T06:54:09.229Z,7.55
2019-02-20T06:56:40.552Z,7.62
2019-02-20T06:59:12.365Z,7.71
2019-02-20T07:01:43.934Z,7.65
2019-02-20T07:04:20.306Z,7.64
2019-02-20T07:07:27.482Z,7.60
2019-02-20T07:10:38.093Z,7.59
2019-02-20T07:13:56.155Z,7.48
2019-02-20T07:16:49.969Z,7.64
2019-02-20T07:20:00.366Z,7.63
2019-02-20T07:23:08.216Z,7.42
2019-02-20T07:25:55.774Z,7.51
2019-02-20T07:29:17.131Z,7.49
2019-02-20T07:31:49.387Z,7.43
2019-02-20T07:34:21.090Z,7.42
2019-02-20T07:36:52.541Z,7.47
2019-02-20T07:39:23.799Z,7.66
2019-02-20T07:41:55.207Z,7.68
2019-02-20T07:44:26.982Z,7.65
2019-02-20T07:46:58.274Z,7.69
2019-02-20T07:49:29.602Z,7.77
2019-02-20T07:52:01.016Z,7.70
2019-02-20T07:54:32.459Z,7.58
2019-02-20T07:57:03.730Z,7.58
2019-02-20T07:59:36.117Z,7.45
2019-02-20T08:02:07.971Z,7.62
2019-02-20T08:04:39.472Z,7.61
2019-02-20T08:07:11.122Z,7.75
2019-02-20T08:09:45.059Z,7.61
2019-02-20T08:12:16.563Z,7.74
2019-02-20T08:14:48.605Z,7.73
2019-02-20T08:17:19.925Z,7.79
2019-02-20T08:19:51.845Z,8.03
2019-02-20T08:22:23.189Z,7.98
2019-02-20T08:24:55.135Z,7.98
2019-02-20T08:27:26.391Z,7.94
2019-02-20T08:29:57.695Z,8.14
2019-02-20T08:32:29.306Z,8.12
2019-02-20T08:35:00.725Z,8.15
2019-02-20T08:37:33.235Z,8.23
2019-02-20T08:42:05.409Z,8.23
2019-02-20T08:44:38.885Z,8.33
2019-02-20T08:47:10.178Z,8.45
2019-02-20T08:49:42.381Z,8.33
2019-02-20T08:52:14.484Z,8.24
2019-02-20T08:54:51.178Z,8.30
2019-02-20T08:57:22.919Z,8.31
2019-02-20T08:59:56.039Z,8.25
2019-02-20T09:02:27.306Z,8.51
2019-02-20T09:04:58.735Z,8.38
2019-02-20T09:07:30.512Z,8.37
2019-02-20T09:10:05.066Z,8.47
2019-02-20T09:12:36.534Z,8.65
2019-02-20T09:15:08.812Z,8.58
2019-02-20T09:17:40.742Z,8.49
2019-02-20T09:20:12.892Z,8.60
2019-02-20T09:22:44.458Z,8.54
2019-02-20T09:25:19.755Z,8.51
2019-02-20T09:27:53.926Z,8.67
2019-02-20T09:30:28.511Z,8.67
2019-02-20T09:33:05.594Z,8.72
2019-02-20T09:35:39.379Z,8.81
2019-02-20T09:38:11.119Z,8.83
2019-02-20T09:40:43.391Z,8.86
2019-02-20T09:43:15.031Z,9.04
2019-02-20T09:45:46.647Z,8.87
2019-02-20T09:48:25.818Z,9.05
2019-02-20T09:50:58.159Z,9.22
2019-02-20T09:53:31.107Z,8.95
2019-02-20T09:56:05.445Z,8.81
2019-02-20T09:58:37.900Z,8.78
2019-02-20T10:07:52.509Z,9.24
2019-02-20T10:10:27.850Z,9.33
2019-02-20T10:13:02.770Z,9.03
2019-02-20T10:18:23.275Z,9.09
2019-02-20T10:20:55.690Z,9.12
2019-02-20T10:23:30.683Z,9.15
2019-02-20T10:29:09.668Z,8.90
2019-02-20T10:31:42.524Z,8.81
2019-02-20T10:34:15.233Z,8.77
2019-02-20T10:37:00.408Z,8.92
2019-02-20T10:39:35.966Z,9.23
2019-02-20T10:42:11.371Z,9.12
2019-02-20T10:44:43.448Z,9.27
2019-02-20T10:47:19.382Z,9.20
2019-02-20T10:49:53.075Z,9.20
2019-02-20T10:52:25.046Z,9.23
2019-02-20T10:55:16.532Z,9.28
2019-02-20T10:57:55.076Z,9.25
2019-02-20T11:00:58.547Z,9.20
2019-02-20T11:03:32.254Z,9.24
2019-02-20T11:06:03.717Z,9.29
2019-02-20T11:08:36.866Z,9.25
2019-02-20T11:11:14.817Z,9.14
2019-02-20T11:13:57.859Z,9.24
2019-02-20T11:16:33.008Z,9.27
2019-02-20T11:19:08.059Z,9.23
2019-02-20T11:21:40.292Z,9.25
2019-02-20T11:24:14.880Z,9.14
2019-02-20T11:26:54.278Z,9.24
2019-02-20T11:29:22.385Z,9.35
2019-02-20T11:31:53.800Z,9.22
2019-02-20T11:34:25.192Z,9.21
2019-02-20T11:36:56.610Z,9.08
2019-02-20T11:39:37.556Z,9.16
2019-02-20T11:42:12.097Z,9.18
2019-02-20T11:44:48.105Z,9.34
2019-02-20T11:47:19.649Z,9.33
2019-02-20T11:49:51.258Z,9.26
2019-02-20T11:52:23.279Z,9.18
2019-02-20T11:54:59.360Z,9.26
2019-02-20T11:57:31.261Z,9.08
2019-02-20T12:00:02.611Z,8.97
2019-02-20T12:02:37.631Z,9.08
2019-02-20T12:05:09.530Z,9.24
2019-02-20T12:07:42.423Z,9.28
2019-02-20T12:10:16.886Z,9.11
2019-02-20T12:12:57.412Z,9.13
2019-02-20T12:15:29.158Z,9.13
2019-02-20T12:18:17.371Z,9.24
2019-02-20T12:20:50.529Z,9.28
2019-02-20T12:23:37.035Z,9.25
2019-02-20T12:26:10.356Z,9.12
2019-02-20T12:28:43.094Z,9.14
2019-02-20T12:31:15.906Z,9.35
2019-02-20T12:33:48.264Z,9.48
2019-02-20T12:36:23.261Z,9.29
2019-02-20T12:38:54.690Z,9.32
2019-02-20T12:41:26.035Z,9.17
2019-02-20T12:43:58.501Z,9.22
2019-02-20T12:46:30.392Z,9.22
2019-02-20T12:49:02.118Z,8.98
2019-02-20T12:51:33.915Z,9.06
2019-02-20T12:54:05.228Z,9.30
2019-02-20T12:56:43.658Z,9.22
2019-02-20T12:59:10.488Z,9.29
2019-02-20T13:01:42.019Z,9.25
2019-02-20T13:04:13.608Z,8.97
2019-02-20T13:06:45.333Z,9.05
2019-02-20T13:09:18.850Z,9.04
2019-02-20T13:11:50.404Z,9.03
2019-02-20T13:14:22.902Z,8.98
2019-02-20T13:16:54.458Z,9.02
2019-02-20T13:19:28.625Z,9.12
2019-02-20T13:21:59.984Z,9.10
2019-02-20T13:24:32.669Z,9.04
2019-02-20T13:27:07.867Z,9.05
2019-02-20T13:29:37.221Z,9.02
2019-02-20T13:32:10.663Z,8.75
2019-02-20T13:34:42.004Z,8.85
2019-02-20T13:37:17.127Z,8.85
2019-02-20T13:39:54.161Z,9.09
2019-02-20T13:42:29.758Z,9.06
2019-02-20T13:45:02.217Z,8.97
2019-02-20T13:47:33.598Z,9.06
2019-02-20T13:50:05.502Z,9.08
2019-02-20T13:52:37.943Z,9.12
2019-02-20T13:55:09.963Z,9.13
2019-02-20T13:57:41.829Z,9.11
2019-02-20T14:00:13.647Z,9.01
2019-02-20T14:02:45.654Z,9.11
2019-02-20T14:05:17.167Z,9.07
2019-02-20T14:07:49.794Z,9.08
2019-02-20T14:10:26.837Z,8.97
2019-02-20T14:12:59.363Z,9.10
2019-02-20T14:15:31.065Z,9.10
2019-02-20T14:18:03.026Z,9.14
2019-02-20T14:20:35.988Z,9.12
2019-02-20T14:23:07.672Z,9.16
2019-02-20T14:25:39.151Z,9.15
2019-02-20T14:28:11.252Z,9.18
2019-02-20T14:30:43.353Z,9.11
2019-02-20T14:33:16.389Z,9.25
2019-02-20T14:35:48.443Z,9.30
2019-02-20T14:38:20.206Z,9.34
2019-02-20T14:40:51.890Z,9.26
2019-02-20T14:43:23.385Z,9.24
2019-02-20T14:45:55.073Z,9.37
2019-02-20T14:48:26.406Z,9.52
2019-02-20T14:51:20.843Z,9.60
2019-02-20T14:53:54.287Z,9.41
2019-02-20T14:56:26.073Z,9.54
2019-02-20T14:58:57.858Z,9.50
2019-02-20T15:01:29.927Z,9.43
2019-02-20T15:04:01.910Z,9.34
2019-02-20T15:06:33.798Z,9.38
2019-02-20T15:09:06.940Z,9.36
2019-02-20T15:11:40.189Z,9.44
2019-02-20T15:14:12.125Z,9.49
2019-02-20T15:16:44.020Z,9.29
2019-02-20T15:19:15.824Z,9.46
2019-02-20T15:21:48.602Z,9.50
2019-02-20T15:24:20.340Z,9.36
2019-02-20T15:26:54.235Z,9.41
2019-02-20T15:29:26.553Z,9.40
2019-02-20T15:31:58.052Z,9.45
2019-02-20T15:34:29.931Z,9.50
2019-02-20T15:37:04.437Z,9.58
2019-02-20T15:39:38.244Z,9.56
2019-02-20T15:42:11.364Z,9.51
2019-02-20T15:44:43.820Z,9.43
2019-02-20T15:47:16.303Z,9.39
2019-02-20T15:49:47.695Z,9.45
2019-02-20T15:52:19.669Z,9.32
2019-02-20T15:55:11.232Z,9.37
2019-02-20T15:57:44.559Z,9.47
2019-02-20T16:00:19.748Z,9.31
2019-02-20T16:02:51.741Z,9.29
2019-02-20T16:05:25.543Z,9.40
2019-02-20T16:07:56.965Z,9.38
2019-02-20T16:10:28.827Z,9.31
2019-02-20T16:13:01.899Z,9.36
2019-02-20T16:15:34.287Z,9.27
2019-02-20T16:18:05.950Z,9.37
2019-02-20T16:23:30.656Z,9.29
2019-02-20T16:26:02.364Z,9.32
2019-02-20T16:28:34.474Z,9.26
2019-02-20T16:31:09.335Z,9.26
2019-02-20T16:33:40.997Z,9.34
2019-02-20T16:36:12.515Z,9.27
2019-02-20T16:38:44.333Z,9.27
2019-02-20T16:41:19.501Z,9.28
2019-02-20T16:43:51.068Z,9.17
2019-02-20T16:46:23.234Z,9.27
2019-02-20T16:48:54.865Z,9.20
2019-02-20T16:51:26.854Z,9.17
2019-02-20T16:53:58.331Z,9.11
2019-02-20T16:56:29.653Z,9.02
2019-02-20T16:59:01.741Z,8.99
2019-02-20T17:01:33.754Z,9.05
2019-02-20T17:04:07.215Z,8.97
2019-02-20T17:06:38.543Z,9.25
2019-02-20T17:09:10.066Z,9.03
2019-02-20T17:11:41.691Z,9.00
2019-02-20T17:14:12.967Z,8.95
2019-02-20T17:16:51.448Z,8.98
2019-02-20T17:19:23.040Z,8.92
2019-02-20T17:21:54.546Z,9.04
2019-02-20T17:24:26.104Z,8.95
2019-02-20T17:26:57.556Z,9.01
2019-02-20T17:29:29.725Z,9.01
2019-02-20T17:34:52.372Z,8.87
2019-02-20T17:37:24.878Z,8.80
2019-02-20T17:39:56.481Z,8.77
2019-02-20T17:42:28.227Z,8.76
2019-02-20T17:44:59.939Z,8.69
2019-02-20T17:47:31.881Z,8.62
2019-02-20T17:50:03.478Z,8.61
2019-02-20T17:52:34.735Z,8.61
2019-02-20T17:55:09.421Z,8.74
2019-02-20T17:57:41.609Z,8.73
2019-02-20T18:00:16.215Z,8.69
2019-02-20T18:02:50.778Z,8.67
2019-02-20T18:05:23.889Z,8.67
2019-02-20T18:07:56.223Z,8.74
2019-02-20T18:10:27.845Z,8.68
2019-02-20T18:12:59.599Z,8.72
2019-02-20T18:15:31.519Z,8.71
2019-02-20T18:18:03.469Z,8.66
2019-02-20T18:20:40.974Z,8.74
2019-02-20T18:23:12.365Z,8.78
2019-02-20T18:25:44.090Z,8.75
2019-02-20T18:28:24.070Z,8.67
2019-02-20T18:30:50.252Z,8.70
2019-02-20T18:33:22.003Z,8.67
2019-02-20T18:35:54.908Z,8.57
2019-02-20T18:38:26.321Z,8.71
2019-02-20T18:40:57.929Z,8.50
2019-02-20T18:43:29.707Z,8.51
2019-02-20T18:46:05.653Z,8.61
2019-02-20T18:48:37.541Z,8.68
2019-02-20T18:51:09.540Z,8.60
2019-02-20T18:53:40.867Z,8.64
2019-02-20T18:56:13.367Z,8.78
2019-02-20T18:59:03.908Z,8.66
2019-02-20T19:01:35.371Z,8.76
2019-02-20T19:04:30.410Z,8.80
2019-02-20T19:07:13.794Z,8.69
2019-02-20T19:09:48.221Z,8.74
2019-02-20T19:12:51.574Z,8.86
2019-02-20T19:15:40.570Z,8.85
2019-02-20T19:18:49.094Z,8.88
2019-02-20T19:21:59.532Z,8.82
2019-02-20T19:25:13.724Z,8.93
2019-02-20T19:28:01.038Z,8.87
2019-02-20T19:31:13.557Z,8.83
2019-02-20T19:34:06.760Z,8.96
2019-02-20T19:37:26.029Z,8.86
2019-02-20T19:40:07.594Z,8.98
2019-02-20T19:43:27.397Z,9.00
2019-02-20T19:46:30.144Z,8.99
2019-02-20T19:49:33.752Z,8.89
2019-02-20T19:52:45.955Z,8.97
2019-02-20T19:55:54.254Z,8.97
2019-02-20T19:59:18.920Z,8.93
2019-02-20T20:02:28.338Z,8.97
2019-02-20T20:05:32.556Z,8.90
2019-02-20T20:08:54.343Z,9.01
2019-02-20T20:12:18.912Z,9.02
2019-02-20T20:15:16.914Z,9.04
2019-02-20T20:18:41.397Z,9.04
2019-02-20T20:21:46.148Z,9.04
2019-02-20T20:24:59.509Z,9.03
2019-02-20T20:27:50.068Z,9.05
2019-02-20T20:30:37.084Z,8.99
2019-02-20T20:33:44.153Z,9.03
2019-02-20T20:36:39.788Z,9.10
2019-02-20T20:39:57.928Z,9.06
2019-02-20T20:42:55.779Z,9.05
2019-02-20T20:46:07.822Z,9.05
2019-02-20T20:49:14.798Z,9.02
2019-02-20T20:52:27.484Z,9.08
2019-02-20T20:55:50.531Z,9.14
2019-02-20T20:59:02.262Z,9.08
2019-02-20T21:02:18.397Z,9.13
2019-02-20T21:05:36.926Z,9.11
2019-02-20T21:08:24.585Z,9.11
2019-02-20T21:11:34.313Z,9.12
2019-02-20T21:14:31.088Z,9.12
2019-02-20T21:17:45.347Z,9.08
2019-02-20T21:20:40.387Z,9.11
2019-02-20T21:23:51.079Z,9.05
2019-02-20T21:27:13.545Z,8.99
2019-02-20T21:30:07.513Z,9.00
2019-02-20T21:32:54.957Z,9.09
2019-02-20T21:36:04.757Z,9.05
2019-02-20T21:38:55.230Z,9.02
2019-02-20T21:41:44.723Z,9.02
2019-02-20T21:44:45.740Z,9.10
2019-02-20T21:48:05.303Z,9.05
2019-02-20T21:50:54.118Z,9.09
2019-02-20T21:54:19.401Z,9.10
2019-02-20T21:57:18.849Z,9.05
2019-02-20T22:00:15.827Z,9.18
2019-02-20T22:06:28.173Z,9.23
2019-02-20T22:09:36.591Z,9.19
2019-02-20T22:12:36.735Z,9.24
2019-02-20T22:15:32.691Z,9.22
2019-02-20T22:18:16.084Z,9.24
2019-02-20T22:21:22.083Z,9.19
2019-02-20T22:24:52.798Z,9.26
2019-02-20T22:27:37.730Z,9.27
2019-02-20T22:30:50.815Z,9.32
2019-02-20T22:33:32.638Z,9.30
2019-02-20T22:37:01.320Z,9.30
2019-02-20T22:40:08.940Z,9.30
2019-02-20T22:43:19.930Z,9.31
2019-02-20T22:46:28.295Z,9.25
2019-02-20T22:49:11.861Z,9.25
2019-02-20T22:52:10.665Z,9.27
2019-02-20T22:55:36.302Z,9.24
2019-02-20T22:58:50.084Z,9.27
2019-02-20T23:01:51.876Z,9.15
2019-02-20T23:04:46.000Z,9.24
2019-02-20T23:07:43.343Z,9.10
2019-02-20T23:10:59.781Z,9.12
2019-02-20T23:14:19.774Z,9.10
2019-02-20T23:16:53.543Z,9.17
2019-02-20T23:19:56.185Z,9.14
2019-02-20T23:22:53.401Z,9.13
2019-02-20T23:28:54.087Z,9.12
2019-02-20T23:31:30.538Z,9.08
2019-02-20T23:34:03.460Z,9.06
2019-02-20T23:36:36.314Z,9.06
2019-02-20T23:39:15.358Z,9.09
2019-02-20T23:41:48.914Z,9.12
2019-02-20T23:44:24.269Z,9.10
2019-02-20T23:48:42.070Z,9.19
2019-02-20T23:51:14.004Z,9.12
2019-02-20T23:53:45.893Z,9.14
2019-02-20T23:56:18.157Z,9.03
2019-02-20T23:58:50.143Z,9.03
